sensor_id;sensor_type;location;lat;lon;timestamp;pressure;altitude;pressure_sealevel;temperature;humidity
43450;BME280;29041;42.266;23.110;2022-08-30T00:02:57;95855.16;;;27.33;54.61
43450;BME280;29041;42.266;23.110;2022-08-30T00:05:46;95852.31;;;27.04;55.59
43450;BME280;29041;42.266;23.110;2022-08-30T00:08:33;95855.78;;;27.41;54.17
43450;BME280;29041;42.266;23.110;2022-08-30T00:11:24;95851.44;;;27.07;55.59
43450;BME280;29041;42.266;23.110;2022-08-30T00:14:13;95864.25;;;24.98;63.74
43450;BME280;29041;42.266;23.110;2022-08-30T00:17:00;95872.06;;;23.54;69.01
43450;BME280;29041;42.266;23.110;2022-08-30T00:19:47;95874.69;;;24.48;66.09
43450;BME280;29041;42.266;23.110;2022-08-30T00:22:34;95858.28;;;25.30;62.51
43450;BME280;29041;42.266;23.110;2022-08-30T00:25:22;95856.88;;;25.70;62.24
43450;BME280;29041;42.266;23.110;2022-08-30T00:28:10;95862.47;;;25.11;64.82
43450;BME280;29041;42.266;23.110;2022-08-30T00:30:58;95868.44;;;24.79;66.75
43450;BME280;29041;42.266;23.110;2022-08-30T00:33:46;95870.56;;;24.95;65.86
43450;BME280;29041;42.266;23.110;2022-08-30T00:36:34;95877.97;;;24.98;65.56
43450;BME280;29041;42.266;23.110;2022-08-30T00:39:22;95878.22;;;25.38;64.05
43450;BME280;29041;42.266;23.110;2022-08-30T00:42:10;95873.22;;;23.56;72.59
43450;BME280;29041;42.266;23.110;2022-08-30T00:44:58;95876.16;;;23.80;72.14
43450;BME280;29041;42.266;23.110;2022-08-30T00:47:47;95860.66;;;24.39;70.07
43450;BME280;29041;42.266;23.110;2022-08-30T00:50:42;95845.31;;;26.02;63.56
43450;BME280;29041;42.266;23.110;2022-08-30T00:53:33;95850.81;;;25.31;64.46
43450;BME280;29041;42.266;23.110;2022-08-30T00:56:23;95846.81;;;25.83;62.37
43450;BME280;29041;42.266;23.110;2022-08-30T00:59:11;95848.41;;;26.04;61.02
43450;BME280;29041;42.266;23.110;2022-08-30T01:01:58;95855.47;;;25.34;63.42
43450;BME280;29041;42.266;23.110;2022-08-30T01:04:49;95851.84;;;24.86;64.66
43450;BME280;29041;42.266;23.110;2022-08-30T01:07:37;95861.56;;;23.87;68.32
43450;BME280;29041;42.266;23.110;2022-08-30T01:10:24;95852.03;;;24.40;66.78
43450;BME280;29041;42.266;23.110;2022-08-30T01:13:12;95850.94;;;24.65;66.09
43450;BME280;29041;42.266;23.110;2022-08-30T01:16:01;95863.75;;;24.45;65.36
43450;BME280;29041;42.266;23.110;2022-08-30T01:18:49;95857.88;;;24.77;64.09
43450;BME280;29041;42.266;23.110;2022-08-30T01:21:43;95857.84;;;25.32;61.93
43450;BME280;29041;42.266;23.110;2022-08-30T01:24:33;95845.81;;;25.73;61.29
43450;BME280;29041;42.266;23.110;2022-08-30T01:27:22;95843.63;;;26.08;60.50
43450;BME280;29041;42.266;23.110;2022-08-30T01:30:11;95845.72;;;25.57;63.40
43450;BME280;29041;42.266;23.110;2022-08-30T01:32:59;95848.34;;;26.68;58.91
43450;BME280;29041;42.266;23.110;2022-08-30T01:35:49;95857.03;;;26.47;58.56
43450;BME280;29041;42.266;23.110;2022-08-30T01:38:42;95864.44;;;26.90;57.48
43450;BME280;29041;42.266;23.110;2022-08-30T01:41:34;95848.69;;;26.70;57.65
43450;BME280;29041;42.266;23.110;2022-08-30T01:44:22;95845.66;;;26.85;56.77
43450;BME280;29041;42.266;23.110;2022-08-30T01:47:09;95853.13;;;25.84;60.31
43450;BME280;29041;42.266;23.110;2022-08-30T01:49:57;95846.97;;;25.52;61.83
43450;BME280;29041;42.266;23.110;2022-08-30T01:52:44;95827.63;;;25.79;60.47
43450;BME280;29041;42.266;23.110;2022-08-30T01:55:31;95827.66;;;26.23;58.80
43450;BME280;29041;42.266;23.110;2022-08-30T01:58:20;95839.78;;;26.26;59.01
43450;BME280;29041;42.266;23.110;2022-08-30T02:01:10;95824.13;;;25.99;59.23
43450;BME280;29041;42.266;23.110;2022-08-30T02:03:58;95824.53;;;25.77;61.13
43450;BME280;29041;42.266;23.110;2022-08-30T02:06:46;95838.75;;;24.97;62.96
43450;BME280;29041;42.266;23.110;2022-08-30T02:09:33;95836.56;;;26.07;58.97
43450;BME280;29041;42.266;23.110;2022-08-30T02:12:23;95847.91;;;26.70;57.83
43450;BME280;29041;42.266;23.110;2022-08-30T02:15:12;95836.59;;;26.27;58.73
43450;BME280;29041;42.266;23.110;2022-08-30T02:17:59;95840.38;;;25.70;61.59
43450;BME280;29041;42.266;23.110;2022-08-30T02:20:46;95840.41;;;26.13;60.73
43450;BME280;29041;42.266;23.110;2022-08-30T02:23:34;95839.19;;;25.47;62.81
43450;BME280;29041;42.266;23.110;2022-08-30T02:26:21;95842.72;;;25.71;63.38
43450;BME280;29041;42.266;23.110;2022-08-30T02:29:08;95847.19;;;25.61;62.74
43450;BME280;29041;42.266;23.110;2022-08-30T02:31:57;95852.41;;;26.43;59.18
43450;BME280;29041;42.266;23.110;2022-08-30T02:34:44;95850.72;;;26.29;59.00
43450;BME280;29041;42.266;23.110;2022-08-30T02:37:31;95853.59;;;25.55;62.30
43450;BME280;29041;42.266;23.110;2022-08-30T02:40:19;95850.09;;;24.99;64.43
43450;BME280;29041;42.266;23.110;2022-08-30T02:43:06;95839.06;;;25.03;64.19
43450;BME280;29041;42.266;23.110;2022-08-30T02:45:54;95841.91;;;24.96;64.28
43450;BME280;29041;42.266;23.110;2022-08-30T02:48:42;95854.09;;;24.33;66.78
43450;BME280;29041;42.266;23.110;2022-08-30T02:51:30;95853.41;;;24.21;67.25
43450;BME280;29041;42.266;23.110;2022-08-30T02:54:17;95850.97;;;23.92;67.94
43450;BME280;29041;42.266;23.110;2022-08-30T02:57:05;95847.94;;;25.14;63.47
43450;BME280;29041;42.266;23.110;2022-08-30T02:59:53;95852.13;;;24.64;65.58
43450;BME280;29041;42.266;23.110;2022-08-30T03:02:40;95852.06;;;25.26;63.09
43450;BME280;29041;42.266;23.110;2022-08-30T03:05:29;95850.59;;;24.60;65.79
43450;BME280;29041;42.266;23.110;2022-08-30T03:08:17;95849.94;;;24.17;67.39
43450;BME280;29041;42.266;23.110;2022-08-30T03:11:05;95852.53;;;23.94;67.93
43450;BME280;29041;42.266;23.110;2022-08-30T03:13:52;95846.00;;;24.84;63.97
43450;BME280;29041;42.266;23.110;2022-08-30T03:16:39;95848.28;;;24.89;64.27
43450;BME280;29041;42.266;23.110;2022-08-30T03:19:27;95848.19;;;24.34;66.79
43450;BME280;29041;42.266;23.110;2022-08-30T03:22:16;95845.81;;;24.36;65.84
43450;BME280;29041;42.266;23.110;2022-08-30T03:25:04;95848.31;;;25.40;62.02
43450;BME280;29041;42.266;23.110;2022-08-30T03:27:52;95859.38;;;25.60;60.39
43450;BME280;29041;42.266;23.110;2022-08-30T03:30:39;95853.13;;;25.84;59.45
43450;BME280;29041;42.266;23.110;2022-08-30T03:33:26;95858.50;;;25.43;59.62
43450;BME280;29041;42.266;23.110;2022-08-30T03:36:14;95851.28;;;24.98;61.33
43450;BME280;29041;42.266;23.110;2022-08-30T03:39:02;95856.81;;;25.22;60.69
43450;BME280;29041;42.266;23.110;2022-08-30T03:41:50;95858.13;;;25.14;60.81
43450;BME280;29041;42.266;23.110;2022-08-30T03:44:38;95850.41;;;25.32;60.00
43450;BME280;29041;42.266;23.110;2022-08-30T03:47:25;95848.41;;;24.47;63.51
43450;BME280;29041;42.266;23.110;2022-08-30T03:50:13;95849.47;;;25.15;60.32
43450;BME280;29041;42.266;23.110;2022-08-30T03:53:01;95858.63;;;25.60;58.70
43450;BME280;29041;42.266;23.110;2022-08-30T03:55:49;95856.38;;;25.00;62.11
43450;BME280;29041;42.266;23.110;2022-08-30T03:58:36;95857.19;;;24.97;62.19
43450;BME280;29041;42.266;23.110;2022-08-30T04:01:25;95867.25;;;25.34;59.77
43450;BME280;29041;42.266;23.110;2022-08-30T04:04:12;95867.09;;;25.69;58.53
43450;BME280;29041;42.266;23.110;2022-08-30T04:06:59;95872.44;;;26.00;57.44
43450;BME280;29041;42.266;23.110;2022-08-30T04:09:46;95872.28;;;25.12;61.06
43450;BME280;29041;42.266;23.110;2022-08-30T04:12:35;95868.31;;;25.68;58.87
43450;BME280;29041;42.266;23.110;2022-08-30T04:15:22;95872.16;;;25.19;60.31
43450;BME280;29041;42.266;23.110;2022-08-30T04:18:09;95879.69;;;24.53;63.08
43450;BME280;29041;42.266;23.110;2022-08-30T04:20:57;95896.75;;;24.37;63.86
43450;BME280;29041;42.266;23.110;2022-08-30T04:23:44;95884.13;;;24.09;64.80
43450;BME280;29041;42.266;23.110;2022-08-30T04:26:31;95889.81;;;23.38;67.85
43450;BME280;29041;42.266;23.110;2022-08-30T04:29:21;95881.75;;;24.11;65.13
43450;BME280;29041;42.266;23.110;2022-08-30T04:32:08;95892.91;;;24.28;64.50
43450;BME280;29041;42.266;23.110;2022-08-30T04:34:55;95894.69;;;25.38;61.62
43450;BME280;29041;42.266;23.110;2022-08-30T04:37:43;95893.19;;;24.40;64.22
43450;BME280;29041;42.266;23.110;2022-08-30T04:40:30;95899.22;;;24.94;62.62
43450;BME280;29041;42.266;23.110;2022-08-30T04:43:27;95897.75;;;24.85;62.27
43450;BME280;29041;42.266;23.110;2022-08-30T04:46:16;95902.13;;;24.48;65.63
43450;BME280;29041;42.266;23.110;2022-08-30T04:49:04;95900.19;;;24.80;63.36
43450;BME280;29041;42.266;23.110;2022-08-30T04:51:52;95916.09;;;24.58;64.17
43450;BME280;29041;42.266;23.110;2022-08-30T04:54:40;95917.19;;;24.33;65.55
43450;BME280;29041;42.266;23.110;2022-08-30T04:57:28;95908.38;;;25.42;61.11
43450;BME280;29041;42.266;23.110;2022-08-30T05:00:16;95918.69;;;25.03;63.59
43450;BME280;29041;42.266;23.110;2022-08-30T05:03:06;95925.28;;;24.44;65.96
43450;BME280;29041;42.266;23.110;2022-08-30T05:05:54;95917.47;;;24.77;65.57
43450;BME280;29041;42.266;23.110;2022-08-30T05:08:41;95921.41;;;25.07;63.85
43450;BME280;29041;42.266;23.110;2022-08-30T05:11:28;95918.69;;;25.03;63.51
43450;BME280;29041;42.266;23.110;2022-08-30T05:14:16;95916.59;;;24.49;64.63
43450;BME280;29041;42.266;23.110;2022-08-30T05:17:03;95915.50;;;24.43;65.73
43450;BME280;29041;42.266;23.110;2022-08-30T05:19:52;95925.53;;;24.57;64.75
43450;BME280;29041;42.266;23.110;2022-08-30T05:22:41;95906.94;;;25.02;63.29
43450;BME280;29041;42.266;23.110;2022-08-30T05:25:36;95911.75;;;25.22;61.76
43450;BME280;29041;42.266;23.110;2022-08-30T05:28:24;95915.94;;;25.85;60.20
43450;BME280;29041;42.266;23.110;2022-08-30T05:31:13;95922.28;;;25.55;61.61
43450;BME280;29041;42.266;23.110;2022-08-30T05:34:01;95919.94;;;25.80;61.36
43450;BME280;29041;42.266;23.110;2022-08-30T05:36:50;95921.59;;;24.92;65.25
43450;BME280;29041;42.266;23.110;2022-08-30T05:39:37;95923.31;;;25.10;63.24
43450;BME280;29041;42.266;23.110;2022-08-30T05:42:24;95921.88;;;25.29;62.40
43450;BME280;29041;42.266;23.110;2022-08-30T05:45:13;95913.72;;;25.76;61.03
43450;BME280;29041;42.266;23.110;2022-08-30T05:48:00;95910.69;;;26.38;58.37
43450;BME280;29041;42.266;23.110;2022-08-30T05:50:47;95917.19;;;26.88;54.94
43450;BME280;29041;42.266;23.110;2022-08-30T05:53:37;95922.00;;;25.96;58.45
43450;BME280;29041;42.266;23.110;2022-08-30T05:56:26;95929.63;;;26.12;57.27
43450;BME280;29041;42.266;23.110;2022-08-30T05:59:13;95906.03;;;26.35;56.89
43450;BME280;29041;42.266;23.110;2022-08-30T06:02:02;95898.19;;;25.66;57.88
43450;BME280;29041;42.266;23.110;2022-08-30T06:04:49;95924.19;;;25.85;57.98
43450;BME280;29041;42.266;23.110;2022-08-30T06:07:36;95931.28;;;25.59;59.14
43450;BME280;29041;42.266;23.110;2022-08-30T06:10:25;95921.38;;;25.89;59.28
43450;BME280;29041;42.266;23.110;2022-08-30T06:13:13;95927.59;;;26.17;57.55
43450;BME280;29041;42.266;23.110;2022-08-30T06:16:00;95923.94;;;25.76;58.58
43450;BME280;29041;42.266;23.110;2022-08-30T06:18:47;95925.56;;;25.73;59.27
43450;BME280;29041;42.266;23.110;2022-08-30T06:21:35;95922.25;;;25.82;59.41
43450;BME280;29041;42.266;23.110;2022-08-30T06:24:24;95927.66;;;26.13;57.80
43450;BME280;29041;42.266;23.110;2022-08-30T06:27:12;95930.44;;;26.33;57.77
43450;BME280;29041;42.266;23.110;2022-08-30T06:30:00;95934.16;;;25.75;59.15
43450;BME280;29041;42.266;23.110;2022-08-30T06:32:47;95926.72;;;26.43;57.20
43450;BME280;29041;42.266;23.110;2022-08-30T06:35:34;95931.59;;;26.12;58.37
43450;BME280;29041;42.266;23.110;2022-08-30T06:38:22;95933.19;;;25.62;60.37
43450;BME280;29041;42.266;23.110;2022-08-30T06:41:15;95929.19;;;25.66;60.29
43450;BME280;29041;42.266;23.110;2022-08-30T06:44:05;95929.06;;;25.97;59.89
43450;BME280;29041;42.266;23.110;2022-08-30T06:46:53;95924.13;;;26.12;59.85
43450;BME280;29041;42.266;23.110;2022-08-30T06:49:40;95914.75;;;26.30;59.17
43450;BME280;29041;42.266;23.110;2022-08-30T06:52:27;95920.66;;;26.08;59.28
43450;BME280;29041;42.266;23.110;2022-08-30T06:55:15;95929.34;;;26.91;57.68
43450;BME280;29041;42.266;23.110;2022-08-30T06:58:03;95912.63;;;26.18;59.20
43450;BME280;29041;42.266;23.110;2022-08-30T07:00:54;95924.53;;;26.55;59.83
43450;BME280;29041;42.266;23.110;2022-08-30T07:03:41;95913.22;;;27.26;56.58
43450;BME280;29041;42.266;23.110;2022-08-30T07:06:29;95919.28;;;28.03;52.85
43450;BME280;29041;42.266;23.110;2022-08-30T07:09:16;95922.06;;;30.08;48.74
43450;BME280;29041;42.266;23.110;2022-08-30T07:12:04;95923.03;;;31.25;44.69
43450;BME280;29041;42.266;23.110;2022-08-30T07:14:52;95921.78;;;29.54;48.22
43450;BME280;29041;42.266;23.110;2022-08-30T07:17:40;95923.97;;;27.90;52.31
43450;BME280;29041;42.266;23.110;2022-08-30T07:20:45;95919.19;;;27.04;54.75
43450;BME280;29041;42.266;23.110;2022-08-30T07:23:32;95925.34;;;26.72;56.27
43450;BME280;29041;42.266;23.110;2022-08-30T07:26:22;95924.16;;;27.30;55.07
43450;BME280;29041;42.266;23.110;2022-08-30T07:29:10;95924.47;;;27.52;54.12
43450;BME280;29041;42.266;23.110;2022-08-30T07:31:57;95927.53;;;26.20;58.31
43450;BME280;29041;42.266;23.110;2022-08-30T07:34:46;95924.25;;;26.89;56.87
43450;BME280;29041;42.266;23.110;2022-08-30T07:37:33;95923.66;;;26.98;56.68
43450;BME280;29041;42.266;23.110;2022-08-30T07:40:21;95922.56;;;26.75;56.81
43450;BME280;29041;42.266;23.110;2022-08-30T07:43:08;95924.38;;;26.62;57.41
43450;BME280;29041;42.266;23.110;2022-08-30T07:46:00;95908.97;;;27.05;57.46
43450;BME280;29041;42.266;23.110;2022-08-30T07:48:48;95919.97;;;27.42;55.02
43450;BME280;29041;42.266;23.110;2022-08-30T07:51:38;95919.44;;;27.30;55.63
43450;BME280;29041;42.266;23.110;2022-08-30T07:54:28;95926.94;;;29.01;51.66
43450;BME280;29041;42.266;23.110;2022-08-30T07:57:17;95912.97;;;30.07;47.93
43450;BME280;29041;42.266;23.110;2022-08-30T08:00:05;95922.22;;;30.49;47.47
43450;BME280;29041;42.266;23.110;2022-08-30T08:02:52;95912.88;;;31.22;45.34
43450;BME280;29041;42.266;23.110;2022-08-30T08:05:42;95916.06;;;32.67;42.47
43450;BME280;29041;42.266;23.110;2022-08-30T08:08:31;95913.41;;;30.41;47.12
43450;BME280;29041;42.266;23.110;2022-08-30T08:11:20;95917.59;;;32.78;42.43
43450;BME280;29041;42.266;23.110;2022-08-30T08:14:09;95915.69;;;33.79;38.56
43450;BME280;29041;42.266;23.110;2022-08-30T08:16:56;95915.78;;;32.47;43.72
43450;BME280;29041;42.266;23.110;2022-08-30T08:19:43;95917.41;;;32.16;42.64
43450;BME280;29041;42.266;23.110;2022-08-30T08:22:31;95915.47;;;29.67;48.65
43450;BME280;29041;42.266;23.110;2022-08-30T08:25:19;95909.06;;;31.07;45.24
43450;BME280;29041;42.266;23.110;2022-08-30T08:28:07;95917.84;;;31.05;44.93
43450;BME280;29041;42.266;23.110;2022-08-30T08:30:55;95915.53;;;30.37;46.31
43450;BME280;29041;42.266;23.110;2022-08-30T08:33:42;95905.16;;;28.60;50.46
43450;BME280;29041;42.266;23.110;2022-08-30T08:36:30;95920.22;;;29.15;49.61
43450;BME280;29041;42.266;23.110;2022-08-30T08:39:18;95911.66;;;28.83;50.66
43450;BME280;29041;42.266;23.110;2022-08-30T08:42:14;95912.81;;;29.76;47.20
43450;BME280;29041;42.266;23.110;2022-08-30T08:45:09;95914.69;;;29.02;47.77
43450;BME280;29041;42.266;23.110;2022-08-30T08:48:00;95926.63;;;29.89;46.22
43450;BME280;29041;42.266;23.110;2022-08-30T08:50:47;95921.56;;;29.74;45.76
43450;BME280;29041;42.266;23.110;2022-08-30T08:53:53;95921.69;;;29.32;46.71
43450;BME280;29041;42.266;23.110;2022-08-30T08:56:42;95912.50;;;30.09;44.81
43450;BME280;29041;42.266;23.110;2022-08-30T08:59:30;95913.50;;;30.50;43.91
43450;BME280;29041;42.266;23.110;2022-08-30T09:02:22;95915.78;;;30.96;42.49
43450;BME280;29041;42.266;23.110;2022-08-30T09:05:12;95926.75;;;29.59;45.85
43450;BME280;29041;42.266;23.110;2022-08-30T09:08:02;95915.28;;;29.48;46.72
43450;BME280;29041;42.266;23.110;2022-08-30T09:10:52;95931.97;;;28.47;49.60
43450;BME280;29041;42.266;23.110;2022-08-30T09:13:41;95932.06;;;27.81;52.30
43450;BME280;29041;42.266;23.110;2022-08-30T09:16:48;95936.72;;;27.67;53.39
43450;BME280;29041;42.266;23.110;2022-08-30T09:19:39;95934.31;;;27.53;52.89
43450;BME280;29041;42.266;23.110;2022-08-30T09:22:32;95929.91;;;28.51;49.63
43450;BME280;29041;42.266;23.110;2022-08-30T09:25:23;95916.44;;;28.66;48.93
43450;BME280;29041;42.266;23.110;2022-08-30T09:28:13;95924.22;;;29.26;47.68
43450;BME280;29041;42.266;23.110;2022-08-30T09:31:03;95923.28;;;28.61;49.48
43450;BME280;29041;42.266;23.110;2022-08-30T09:33:55;95921.66;;;29.06;49.25
43450;BME280;29041;42.266;23.110;2022-08-30T09:36:48;95911.34;;;28.94;49.80
43450;BME280;29041;42.266;23.110;2022-08-30T09:39:36;95921.63;;;28.64;50.03
43450;BME280;29041;42.266;23.110;2022-08-30T09:42:28;95919.84;;;28.74;50.69
43450;BME280;29041;42.266;23.110;2022-08-30T09:45:28;95919.03;;;28.73;51.31
43450;BME280;29041;42.266;23.110;2022-08-30T09:48:27;95922.81;;;28.50;51.59
43450;BME280;29041;42.266;23.110;2022-08-30T09:51:39;95919.00;;;28.31;54.29
43450;BME280;29041;42.266;23.110;2022-08-30T09:54:35;95929.75;;;27.79;56.14
43450;BME280;29041;42.266;23.110;2022-08-30T09:57:32;95928.28;;;28.37;55.48
43450;BME280;29041;42.266;23.110;2022-08-30T10:00:25;95921.69;;;28.18;55.51
43450;BME280;29041;42.266;23.110;2022-08-30T10:03:21;95933.97;;;28.46;55.11
43450;BME280;29041;42.266;23.110;2022-08-30T10:06:17;95924.88;;;28.00;55.09
43450;BME280;29041;42.266;23.110;2022-08-30T10:09:21;95927.66;;;28.00;53.22
43450;BME280;29041;42.266;23.110;2022-08-30T10:12:18;95926.34;;;27.38;55.06
43450;BME280;29041;42.266;23.110;2022-08-30T10:15:09;95923.16;;;27.03;54.43
43450;BME280;29041;42.266;23.110;2022-08-30T10:18:06;95924.56;;;27.12;56.19
43450;BME280;29041;42.266;23.110;2022-08-30T10:21:06;95917.72;;;28.02;53.70
43450;BME280;29041;42.266;23.110;2022-08-30T10:24:00;95921.66;;;27.35;55.99
43450;BME280;29041;42.266;23.110;2022-08-30T10:26:52;95913.16;;;26.93;58.07
43450;BME280;29041;42.266;23.110;2022-08-30T10:29:42;95910.97;;;27.21;54.24
43450;BME280;29041;42.266;23.110;2022-08-30T10:32:34;95912.38;;;27.95;53.63
43450;BME280;29041;42.266;23.110;2022-08-30T10:35:27;95908.28;;;27.54;51.63
43450;BME280;29041;42.266;23.110;2022-08-30T10:38:21;95907.94;;;27.52;50.75
43450;BME280;29041;42.266;23.110;2022-08-30T10:41:19;95902.22;;;26.69;52.38
43450;BME280;29041;42.266;23.110;2022-08-30T10:44:17;95904.19;;;26.49;53.96
43450;BME280;29041;42.266;23.110;2022-08-30T10:47:12;95913.81;;;26.81;51.72
43450;BME280;29041;42.266;23.110;2022-08-30T10:50:11;95911.53;;;26.35;55.09
43450;BME280;29041;42.266;23.110;2022-08-30T10:53:08;95906.16;;;26.68;54.25
43450;BME280;29041;42.266;23.110;2022-08-30T10:55:59;95905.81;;;26.86;54.74
43450;BME280;29041;42.266;23.110;2022-08-30T10:58:47;95912.81;;;26.31;58.71
43450;BME280;29041;42.266;23.110;2022-08-30T11:01:49;95900.75;;;26.85;58.26
43450;BME280;29041;42.266;23.110;2022-08-30T11:05:05;95897.38;;;27.30;57.86
43450;BME280;29041;42.266;23.110;2022-08-30T11:08:02;95874.00;;;27.02;56.52
43450;BME280;29041;42.266;23.110;2022-08-30T11:11:03;95877.16;;;27.86;53.78
43450;BME280;29041;42.266;23.110;2022-08-30T11:13:53;95869.00;;;26.97;52.39
43450;BME280;29041;42.266;23.110;2022-08-30T11:16:44;95862.72;;;26.96;54.32
43450;BME280;29041;42.266;23.110;2022-08-30T11:19:36;95874.41;;;27.70;52.11
43450;BME280;29041;42.266;23.110;2022-08-30T11:22:27;95867.22;;;27.06;53.93
43450;BME280;29041;42.266;23.110;2022-08-30T11:25:15;95873.13;;;27.58;52.61
43450;BME280;29041;42.266;23.110;2022-08-30T11:31:49;95878.16;;;28.39;51.14
43450;BME280;29041;42.266;23.110;2022-08-30T11:34:57;95874.38;;;28.32;49.06
43450;BME280;29041;42.266;23.110;2022-08-30T11:37:45;95872.00;;;27.55;51.73
43450;BME280;29041;42.266;23.110;2022-08-30T11:41:04;95875.16;;;27.87;50.86
43450;BME280;29041;42.266;23.110;2022-08-30T11:43:52;95879.19;;;28.15;49.50
43450;BME280;29041;42.266;23.110;2022-08-30T11:46:41;95864.78;;;28.08;50.12
43450;BME280;29041;42.266;23.110;2022-08-30T11:52:49;95861.19;;;28.11;50.13
43450;BME280;29041;42.266;23.110;2022-08-30T11:55:46;95863.56;;;27.63;52.41
43450;BME280;29041;42.266;23.110;2022-08-30T11:58:46;95862.94;;;27.71;54.10
43450;BME280;29041;42.266;23.110;2022-08-30T12:01:36;95847.09;;;27.59;53.99
43450;BME280;29041;42.266;23.110;2022-08-30T12:04:50;95849.34;;;27.31;55.13
43450;BME280;29041;42.266;23.110;2022-08-30T12:07:58;95851.47;;;27.40;56.33
43450;BME280;29041;42.266;23.110;2022-08-30T12:10:47;95852.25;;;27.74;56.36
43450;BME280;29041;42.266;23.110;2022-08-30T12:13:51;95838.25;;;28.14;54.38
43450;BME280;29041;42.266;23.110;2022-08-30T12:16:42;95834.53;;;28.89;52.68
43450;BME280;29041;42.266;23.110;2022-08-30T12:19:45;95836.97;;;28.74;51.94
43450;BME280;29041;42.266;23.110;2022-08-30T12:22:36;95835.41;;;29.24;51.12
43450;BME280;29041;42.266;23.110;2022-08-30T12:25:28;95822.00;;;28.16;53.70
43450;BME280;29041;42.266;23.110;2022-08-30T12:28:21;95843.06;;;28.39;52.50
43450;BME280;29041;42.266;23.110;2022-08-30T12:31:10;95831.31;;;28.35;52.97
43450;BME280;29041;42.266;23.110;2022-08-30T12:34:00;95826.88;;;27.66;59.83
43450;BME280;29041;42.266;23.110;2022-08-30T12:36:53;95830.09;;;26.74;61.64
43450;BME280;29041;42.266;23.110;2022-08-30T12:39:43;95837.19;;;27.12;60.31
43450;BME280;29041;42.266;23.110;2022-08-30T12:42:33;95846.72;;;27.07;59.63
43450;BME280;29041;42.266;23.110;2022-08-30T12:45:23;95853.78;;;27.08;59.43
43450;BME280;29041;42.266;23.110;2022-08-30T12:48:14;95847.66;;;27.01;60.26
43450;BME280;29041;42.266;23.110;2022-08-30T12:51:04;95855.00;;;27.74;59.65
43450;BME280;29041;42.266;23.110;2022-08-30T12:53:52;95853.59;;;26.99;61.33
43450;BME280;29041;42.266;23.110;2022-08-30T12:56:47;95860.88;;;27.76;59.98
43450;BME280;29041;42.266;23.110;2022-08-30T12:59:40;95853.50;;;28.02;58.66
43450;BME280;29041;42.266;23.110;2022-08-30T13:02:36;95856.19;;;28.06;58.19
43450;BME280;29041;42.266;23.110;2022-08-30T13:05:42;95862.09;;;27.58;59.38
43450;BME280;29041;42.266;23.110;2022-08-30T13:08:32;95870.50;;;28.30;56.27
43450;BME280;29041;42.266;23.110;2022-08-30T13:11:23;95864.41;;;27.60;58.86
43450;BME280;29041;42.266;23.110;2022-08-30T13:14:28;95838.56;;;28.16;57.76
43450;BME280;29041;42.266;23.110;2022-08-30T13:17:21;95863.81;;;29.25;54.16
43450;BME280;29041;42.266;23.110;2022-08-30T13:20:21;95853.13;;;28.59;56.19
43450;BME280;29041;42.266;23.110;2022-08-30T13:23:10;95868.50;;;27.02;59.18
43450;BME280;29041;42.266;23.110;2022-08-30T13:25:57;95881.81;;;26.87;57.72
43450;BME280;29041;42.266;23.110;2022-08-30T13:28:50;95872.13;;;26.99;57.02
43450;BME280;29041;42.266;23.110;2022-08-30T13:31:39;95874.31;;;28.07;53.76
43450;BME280;29041;42.266;23.110;2022-08-30T13:34:26;95872.28;;;26.71;58.16
43450;BME280;29041;42.266;23.110;2022-08-30T13:37:21;95873.28;;;27.18;56.58
43450;BME280;29041;42.266;23.110;2022-08-30T13:40:09;95852.25;;;27.07;56.91
43450;BME280;29041;42.266;23.110;2022-08-30T13:42:58;95867.84;;;27.80;55.80
43450;BME280;29041;42.266;23.110;2022-08-30T13:45:45;95872.84;;;27.19;55.04
43450;BME280;29041;42.266;23.110;2022-08-30T13:48:35;95855.66;;;28.40;52.06
43450;BME280;29041;42.266;23.110;2022-08-30T13:51:22;95844.91;;;28.29;50.30
43450;BME280;29041;42.266;23.110;2022-08-30T13:54:09;95852.50;;;27.96;53.48
43450;BME280;29041;42.266;23.110;2022-08-30T13:56:57;95846.44;;;28.30;52.61
43450;BME280;29041;42.266;23.110;2022-08-30T13:59:44;95837.47;;;26.61;55.49
43450;BME280;29041;42.266;23.110;2022-08-30T14:02:31;95842.78;;;26.52;54.74
43450;BME280;29041;42.266;23.110;2022-08-30T14:05:20;95843.91;;;27.44;51.75
43450;BME280;29041;42.266;23.110;2022-08-30T14:08:09;95843.34;;;27.00;53.21
43450;BME280;29041;42.266;23.110;2022-08-30T14:10:56;95848.47;;;27.34;52.79
43450;BME280;29041;42.266;23.110;2022-08-30T14:13:44;95848.28;;;28.50;50.16
43450;BME280;29041;42.266;23.110;2022-08-30T14:16:33;95850.56;;;29.07;47.65
43450;BME280;29041;42.266;23.110;2022-08-30T14:19:20;95848.56;;;28.81;48.62
43450;BME280;29041;42.266;23.110;2022-08-30T14:22:09;95846.06;;;28.58;49.96
43450;BME280;29041;42.266;23.110;2022-08-30T14:24:56;95848.13;;;28.83;49.33
43450;BME280;29041;42.266;23.110;2022-08-30T14:27:46;95846.84;;;28.58;48.96
43450;BME280;29041;42.266;23.110;2022-08-30T14:30:33;95844.16;;;28.42;50.53
43450;BME280;29041;42.266;23.110;2022-08-30T14:33:20;95831.63;;;28.67;49.45
43450;BME280;29041;42.266;23.110;2022-08-30T14:36:08;95823.25;;;29.35;47.65
43450;BME280;29041;42.266;23.110;2022-08-30T14:38:58;95825.25;;;28.95;48.87
43450;BME280;29041;42.266;23.110;2022-08-30T14:41:47;95815.09;;;29.05;49.87
43450;BME280;29041;42.266;23.110;2022-08-30T14:44:34;95823.09;;;28.48;50.58
43450;BME280;29041;42.266;23.110;2022-08-30T14:47:22;95822.28;;;28.34;51.22
43450;BME280;29041;42.266;23.110;2022-08-30T14:50:09;95821.06;;;28.36;50.32
43450;BME280;29041;42.266;23.110;2022-08-30T14:52:57;95811.94;;;28.64;50.11
43450;BME280;29041;42.266;23.110;2022-08-30T14:55:45;95813.94;;;28.51;51.24
43450;BME280;29041;42.266;23.110;2022-08-30T14:58:32;95811.00;;;28.84;49.29